sensor_id;sensor_type;location;lat;lon;timestamp;temperature;humidity
10512;DHT22;5304;48.604;2.096;2023-05-16T00:00:58;9.30;99.90
10512;DHT22;5304;48.604;2.096;2023-05-16T00:03:42;9.30;99.90
10512;DHT22;5304;48.604;2.096;2023-05-16T00:06:27;9.30;99.90
10512;DHT22;5304;48.604;2.096;2023-05-16T00:09:11;9.30;99.90
10512;DHT22;5304;48.604;2.096;2023-05-16T00:11:56;9.30;99.90
10512;DHT22;5304;48.604;2.096;2023-05-16T00:14:41;9.30;99.90
10512;DHT22;5304;48.604;2.096;2023-05-16T00:17:25;9.30;99.90
10512;DHT22;5304;48.604;2.096;2023-05-16T00:20:15;9.30;99.90
10512;DHT22;5304;48.604;2.096;2023-05-16T00:23:02;9.20;99.90
10512;DHT22;5304;48.604;2.096;2023-05-16T00:25:47;9.20;99.90
10512;DHT22;5304;48.604;2.096;2023-05-16T00:28:32;9.20;99.90
10512;DHT22;5304;48.604;2.096;2023-05-16T00:31:17;9.20;99.90
10512;DHT22;5304;48.604;2.096;2023-05-16T00:34:01;9.20;99.90
10512;DHT22;5304;48.604;2.096;2023-05-16T00:36:46;9.10;99.90
10512;DHT22;5304;48.604;2.096;2023-05-16T00:39:30;9.10;99.90
10512;DHT22;5304;48.604;2.096;2023-05-16T00:42:17;9.10;99.90
10512;DHT22;5304;48.604;2.096;2023-05-16T00:45:02;9.10;99.90
10512;DHT22;5304;48.604;2.096;2023-05-16T00:47:47;9.00;99.90
10512;DHT22;5304;48.604;2.096;2023-05-16T00:50:32;8.90;99.90
10512;DHT22;5304;48.604;2.096;2023-05-16T00:53:18;8.90;99.90
10512;DHT22;5304;48.604;2.096;2023-05-16T00:56:02;8.90;99.90
10512;DHT22;5304;48.604;2.096;2023-05-16T00:58:47;8.80;99.90
10512;DHT22;5304;48.604;2.096;2023-05-16T01:01:32;8.80;99.90
10512;DHT22;5304;48.604;2.096;2023-05-16T01:04:18;8.80;99.90
10512;DHT22;5304;48.604;2.096;2023-05-16T01:07:04;8.70;99.90
10512;DHT22;5304;48.604;2.096;2023-05-16T01:09:48;8.80;99.90
10512;DHT22;5304;48.604;2.096;2023-05-16T01:15:49;8.80;99.90
10512;DHT22;5304;48.604;2.096;2023-05-16T01:22:39;8.60;99.90
10512;DHT22;5304;48.604;2.096;2023-05-16T01:28:48;8.50;99.90
10512;DHT22;5304;48.604;2.096;2023-05-16T01:31:33;8.50;99.90
10512;DHT22;5304;48.604;2.096;2023-05-16T01:34:17;8.50;99.90
10512;DHT22;5304;48.604;2.096;2023-05-16T01:37:15;8.60;99.90
10512;DHT22;5304;48.604;2.096;2023-05-16T01:40:25;8.50;99.90
10512;DHT22;5304;48.604;2.096;2023-05-16T01:43:16;8.60;99.90
10512;DHT22;5304;48.604;2.096;2023-05-16T01:46:26;8.40;99.90
10512;DHT22;5304;48.604;2.096;2023-05-16T01:52:18;8.40;99.90
10512;DHT22;5304;48.604;2.096;2023-05-16T01:55:10;8.40;99.90
10512;DHT22;5304;48.604;2.096;2023-05-16T01:57:55;8.40;99.90
10512;DHT22;5304;48.604;2.096;2023-05-16T02:00:42;8.40;99.90
10512;DHT22;5304;48.604;2.096;2023-05-16T02:03:28;8.30;99.90
10512;DHT22;5304;48.604;2.096;2023-05-16T02:06:12;8.30;99.90
10512;DHT22;5304;48.604;2.096;2023-05-16T02:08:57;8.30;99.90
10512;DHT22;5304;48.604;2.096;2023-05-16T02:11:41;8.30;99.90
10512;DHT22;5304;48.604;2.096;2023-05-16T02:14:26;8.20;99.90
10512;DHT22;5304;48.604;2.096;2023-05-16T02:17:11;8.20;99.90
10512;DHT22;5304;48.604;2.096;2023-05-16T02:19:55;8.20;99.90
10512;DHT22;5304;48.604;2.096;2023-05-16T02:22:39;8.10;99.90
10512;DHT22;5304;48.604;2.096;2023-05-16T02:25:25;8.10;99.90
10512;DHT22;5304;48.604;2.096;2023-05-16T02:28:10;8.20;99.90
10512;DHT22;5304;48.604;2.096;2023-05-16T02:30:58;8.20;99.90
10512;DHT22;5304;48.604;2.096;2023-05-16T02:33:42;8.20;99.90
10512;DHT22;5304;48.604;2.096;2023-05-16T02:36:27;8.10;99.90
10512;DHT22;5304;48.604;2.096;2023-05-16T02:39:12;8.10;99.90
10512;DHT22;5304;48.604;2.096;2023-05-16T02:41:56;8.10;99.90
10512;DHT22;5304;48.604;2.096;2023-05-16T02:44:41;8.10;99.90
10512;DHT22;5304;48.604;2.096;2023-05-16T02:47:26;8.00;99.90
10512;DHT22;5304;48.604;2.096;2023-05-16T02:50:10;7.90;99.90
10512;DHT22;5304;48.604;2.096;2023-05-16T02:52:55;7.90;99.90
10512;DHT22;5304;48.604;2.096;2023-05-16T02:55:39;7.90;99.90
10512;DHT22;5304;48.604;2.096;2023-05-16T02:58:23;7.90;99.90
10512;DHT22;5304;48.604;2.096;2023-05-16T03:01:09;7.90;99.90
10512;DHT22;5304;48.604;2.096;2023-05-16T03:03:53;7.80;99.90
10512;DHT22;5304;48.604;2.096;2023-05-16T03:06:37;7.90;99.90
10512;DHT22;5304;48.604;2.096;2023-05-16T03:09:22;7.90;99.90
10512;DHT22;5304;48.604;2.096;2023-05-16T03:12:07;7.90;99.90
10512;DHT22;5304;48.604;2.096;2023-05-16T03:14:51;7.80;99.90
10512;DHT22;5304;48.604;2.096;2023-05-16T03:17:36;7.80;99.90
10512;DHT22;5304;48.604;2.096;2023-05-16T03:20:20;7.80;99.90
10512;DHT22;5304;48.604;2.096;2023-05-16T03:23:05;7.80;99.90
10512;DHT22;5304;48.604;2.096;2023-05-16T03:25:51;7.80;99.90
10512;DHT22;5304;48.604;2.096;2023-05-16T03:28:36;7.70;99.90
10512;DHT22;5304;48.604;2.096;2023-05-16T03:31:20;7.80;99.90
10512;DHT22;5304;48.604;2.096;2023-05-16T03:34:05;7.80;99.90
10512;DHT22;5304;48.604;2.096;2023-05-16T03:36:50;7.80;99.90
10512;DHT22;5304;48.604;2.096;2023-05-16T03:39:34;7.80;99.90
10512;DHT22;5304;48.604;2.096;2023-05-16T03:42:18;7.80;99.90
10512;DHT22;5304;48.604;2.096;2023-05-16T03:45:06;7.70;99.90
10512;DHT22;5304;48.604;2.096;2023-05-16T03:47:51;7.70;99.90
10512;DHT22;5304;48.604;2.096;2023-05-16T03:50:36;7.70;99.90
10512;DHT22;5304;48.604;2.096;2023-05-16T03:53:20;7.60;99.90
10512;DHT22;5304;48.604;2.096;2023-05-16T03:56:05;7.70;99.90
10512;DHT22;5304;48.604;2.096;2023-05-16T03:58:49;7.70;99.90
10512;DHT22;5304;48.604;2.096;2023-05-16T04:01:33;7.60;99.90
10512;DHT22;5304;48.604;2.096;2023-05-16T04:04:18;7.50;99.90
10512;DHT22;5304;48.604;2.096;2023-05-16T04:07:02;7.40;99.90
10512;DHT22;5304;48.604;2.096;2023-05-16T04:09:46;7.40;99.90
10512;DHT22;5304;48.604;2.096;2023-05-16T04:12:31;7.40;99.90
10512;DHT22;5304;48.604;2.096;2023-05-16T04:15:15;7.30;99.90
10512;DHT22;5304;48.604;2.096;2023-05-16T04:18:00;7.30;99.90
10512;DHT22;5304;48.604;2.096;2023-05-16T04:20:44;7.30;99.90
10512;DHT22;5304;48.604;2.096;2023-05-16T04:23:30;7.20;99.90
10512;DHT22;5304;48.604;2.096;2023-05-16T04:26:15;7.20;99.90
10512;DHT22;5304;48.604;2.096;2023-05-16T04:28:59;7.30;99.90
10512;DHT22;5304;48.604;2.096;2023-05-16T04:31:43;7.20;99.90
10512;DHT22;5304;48.604;2.096;2023-05-16T04:34:28;7.20;99.90
10512;DHT22;5304;48.604;2.096;2023-05-16T04:37:13;7.30;99.90
10512;DHT22;5304;48.604;2.096;2023-05-16T04:39:58;7.40;99.90
10512;DHT22;5304;48.604;2.096;2023-05-16T04:42:43;7.40;99.90
10512;DHT22;5304;48.604;2.096;2023-05-16T04:45:27;7.40;99.90
10512;DHT22;5304;48.604;2.096;2023-05-16T04:48:12;7.60;99.90
10512;DHT22;5304;48.604;2.096;2023-05-16T04:50:56;7.60;99.90
10512;DHT22;5304;48.604;2.096;2023-05-16T04:53:41;7.60;99.90
10512;DHT22;5304;48.604;2.096;2023-05-16T04:56:26;7.60;99.90
10512;DHT22;5304;48.604;2.096;2023-05-16T04:59:10;7.60;99.90
10512;DHT22;5304;48.604;2.096;2023-05-16T05:01:54;7.70;99.90
10512;DHT22;5304;48.604;2.096;2023-05-16T05:04:39;7.90;99.90
10512;DHT22;5304;48.604;2.096;2023-05-16T05:07:24;7.90;99.90
10512;DHT22;5304;48.604;2.096;2023-05-16T05:10:11;8.00;99.90
10512;DHT22;5304;48.604;2.096;2023-05-16T05:12:56;8.10;99.90
10512;DHT22;5304;48.604;2.096;2023-05-16T05:15:40;8.30;99.90
10512;DHT22;5304;48.604;2.096;2023-05-16T05:18:25;8.40;99.90
10512;DHT22;5304;48.604;2.096;2023-05-16T05:21:10;8.60;99.90
10512;DHT22;5304;48.604;2.096;2023-05-16T05:23:54;8.70;99.90
10512;DHT22;5304;48.604;2.096;2023-05-16T05:26:39;8.80;99.90
10512;DHT22;5304;48.604;2.096;2023-05-16T05:29:24;8.80;99.90
10512;DHT22;5304;48.604;2.096;2023-05-16T05:32:08;9.00;99.90
10512;DHT22;5304;48.604;2.096;2023-05-16T05:34:52;9.00;99.90
10512;DHT22;5304;48.604;2.096;2023-05-16T05:37:37;9.10;99.90
10512;DHT22;5304;48.604;2.096;2023-05-16T05:40:21;9.30;99.90
10512;DHT22;5304;48.604;2.096;2023-05-16T05:43:06;9.30;99.90
10512;DHT22;5304;48.604;2.096;2023-05-16T05:45:50;9.50;99.90
10512;DHT22;5304;48.604;2.096;2023-05-16T05:48:35;9.70;99.90
10512;DHT22;5304;48.604;2.096;2023-05-16T05:51:19;9.80;99.90
10512;DHT22;5304;48.604;2.096;2023-05-16T05:54:04;9.90;99.90
10512;DHT22;5304;48.604;2.096;2023-05-16T05:56:48;9.90;99.90
10512;DHT22;5304;48.604;2.096;2023-05-16T05:59:32;10.00;99.90
10512;DHT22;5304;48.604;2.096;2023-05-16T06:02:17;10.10;99.90
10512;DHT22;5304;48.604;2.096;2023-05-16T06:05:02;10.20;99.90
10512;DHT22;5304;48.604;2.096;2023-05-16T06:07:46;10.30;99.90
10512;DHT22;5304;48.604;2.096;2023-05-16T06:10:31;10.40;99.90
10512;DHT22;5304;48.604;2.096;2023-05-16T06:13:15;11.00;99.90
10512;DHT22;5304;48.604;2.096;2023-05-16T06:15:59;11.70;99.90
10512;DHT22;5304;48.604;2.096;2023-05-16T06:18:43;11.90;99.90
10512;DHT22;5304;48.604;2.096;2023-05-16T06:21:28;11.90;99.90
10512;DHT22;5304;48.604;2.096;2023-05-16T06:24:13;11.80;99.90
10512;DHT22;5304;48.604;2.096;2023-05-16T06:26:57;11.70;99.90
10512;DHT22;5304;48.604;2.096;2023-05-16T06:29:42;11.70;99.90
10512;DHT22;5304;48.604;2.096;2023-05-16T06:32:26;11.80;99.90
10512;DHT22;5304;48.604;2.096;2023-05-16T06:35:11;12.20;99.90
10512;DHT22;5304;48.604;2.096;2023-05-16T06:37:55;12.30;99.90
10512;DHT22;5304;48.604;2.096;2023-05-16T06:40:40;12.30;99.90
10512;DHT22;5304;48.604;2.096;2023-05-16T06:43:24;12.30;99.90
10512;DHT22;5304;48.604;2.096;2023-05-16T06:46:09;12.50;99.90
10512;DHT22;5304;48.604;2.096;2023-05-16T06:48:53;12.90;99.90
10512;DHT22;5304;48.604;2.096;2023-05-16T06:51:37;13.40;99.90
10512;DHT22;5304;48.604;2.096;2023-05-16T06:54:23;13.90;99.90
10512;DHT22;5304;48.604;2.096;2023-05-16T06:57:08;13.80;99.90
10512;DHT22;5304;48.604;2.096;2023-05-16T06:59:52;13.40;99.90
10512;DHT22;5304;48.604;2.096;2023-05-16T07:02:37;13.00;99.90
10512;DHT22;5304;48.604;2.096;2023-05-16T07:05:21;12.70;99.90
10512;DHT22;5304;48.604;2.096;2023-05-16T07:08:08;12.60;99.90
10512;DHT22;5304;48.604;2.096;2023-05-16T07:10:53;12.50;99.90
10512;DHT22;5304;48.604;2.096;2023-05-16T07:13:38;12.50;99.90
10512;DHT22;5304;48.604;2.096;2023-05-16T07:16:22;12.40;99.90
10512;DHT22;5304;48.604;2.096;2023-05-16T07:19:07;12.30;99.90
10512;DHT22;5304;48.604;2.096;2023-05-16T07:21:51;12.30;99.90
10512;DHT22;5304;48.604;2.096;2023-05-16T07:24:37;12.40;99.90
10512;DHT22;5304;48.604;2.096;2023-05-16T07:27:22;12.50;99.90
10512;DHT22;5304;48.604;2.096;2023-05-16T07:30:11;12.50;99.90
10512;DHT22;5304;48.604;2.096;2023-05-16T07:32:55;12.70;99.90
10512;DHT22;5304;48.604;2.096;2023-05-16T07:35:39;12.70;99.90
10512;DHT22;5304;48.604;2.096;2023-05-16T07:38:24;12.80;99.90
10512;DHT22;5304;48.604;2.096;2023-05-16T07:41:09;13.00;99.90
10512;DHT22;5304;48.604;2.096;2023-05-16T07:43:53;13.00;99.90
10512;DHT22;5304;48.604;2.096;2023-05-16T07:46:37;13.00;99.90
10512;DHT22;5304;48.604;2.096;2023-05-16T07:49:22;12.90;99.90
10512;DHT22;5304;48.604;2.096;2023-05-16T07:52:06;12.70;99.90
10512;DHT22;5304;48.604;2.096;2023-05-16T07:54:51;12.70;99.90
10512;DHT22;5304;48.604;2.096;2023-05-16T07:57:35;13.20;99.90
10512;DHT22;5304;48.604;2.096;2023-05-16T08:00:20;13.70;99.90
10512;DHT22;5304;48.604;2.096;2023-05-16T08:03:05;13.60;99.90
10512;DHT22;5304;48.604;2.096;2023-05-16T08:05:49;14.40;99.90
10512;DHT22;5304;48.604;2.096;2023-05-16T08:08:34;15.70;99.90
10512;DHT22;5304;48.604;2.096;2023-05-16T08:11:19;17.20;99.90
10512;DHT22;5304;48.604;2.096;2023-05-16T08:14:05;17.20;99.90
10512;DHT22;5304;48.604;2.096;2023-05-16T08:16:50;16.80;99.90
10512;DHT22;5304;48.604;2.096;2023-05-16T08:19:34;16.70;99.90
10512;DHT22;5304;48.604;2.096;2023-05-16T08:22:19;16.70;99.90
10512;DHT22;5304;48.604;2.096;2023-05-16T08:25:03;16.70;99.90
10512;DHT22;5304;48.604;2.096;2023-05-16T08:27:49;17.10;99.90
10512;DHT22;5304;48.604;2.096;2023-05-16T08:30:34;17.50;99.90
10512;DHT22;5304;48.604;2.096;2023-05-16T08:33:18;17.80;99.90
10512;DHT22;5304;48.604;2.096;2023-05-16T08:36:03;17.90;99.90
10512;DHT22;5304;48.604;2.096;2023-05-16T08:38:49;17.80;99.90
10512;DHT22;5304;48.604;2.096;2023-05-16T08:41:34;17.80;99.90
10512;DHT22;5304;48.604;2.096;2023-05-16T08:44:18;17.50;99.90
10512;DHT22;5304;48.604;2.096;2023-05-16T08:47:11;17.10;99.90
10512;DHT22;5304;48.604;2.096;2023-05-16T08:49:57;16.90;99.90
10512;DHT22;5304;48.604;2.096;2023-05-16T08:52:43;16.50;99.90
10512;DHT22;5304;48.604;2.096;2023-05-16T08:55:29;16.20;99.90
10512;DHT22;5304;48.604;2.096;2023-05-16T08:58:13;16.20;99.90
10512;DHT22;5304;48.604;2.096;2023-05-16T09:00:58;16.10;99.90
10512;DHT22;5304;48.604;2.096;2023-05-16T09:03:43;16.00;99.90
10512;DHT22;5304;48.604;2.096;2023-05-16T09:06:27;16.00;99.90
10512;DHT22;5304;48.604;2.096;2023-05-16T09:09:12;16.00;99.90
10512;DHT22;5304;48.604;2.096;2023-05-16T09:11:56;15.90;99.90
10512;DHT22;5304;48.604;2.096;2023-05-16T09:14:41;15.90;99.90
10512;DHT22;5304;48.604;2.096;2023-05-16T09:17:36;16.00;99.90
10512;DHT22;5304;48.604;2.096;2023-05-16T09:20:21;16.10;99.90
10512;DHT22;5304;48.604;2.096;2023-05-16T09:23:06;16.00;99.90
10512;DHT22;5304;48.604;2.096;2023-05-16T09:25:52;15.90;99.90
10512;DHT22;5304;48.604;2.096;2023-05-16T09:28:37;16.10;99.90
10512;DHT22;5304;48.604;2.096;2023-05-16T09:31:25;16.30;99.90
10512;DHT22;5304;48.604;2.096;2023-05-16T09:34:09;16.30;99.90
10512;DHT22;5304;48.604;2.096;2023-05-16T09:36:55;16.40;99.90
10512;DHT22;5304;48.604;2.096;2023-05-16T09:39:50;16.30;99.90
10512;DHT22;5304;48.604;2.096;2023-05-16T09:42:35;16.50;99.90
10512;DHT22;5304;48.604;2.096;2023-05-16T09:45:20;16.80;99.90
10512;DHT22;5304;48.604;2.096;2023-05-16T09:48:07;16.60;99.90
10512;DHT22;5304;48.604;2.096;2023-05-16T09:50:52;16.30;99.90
10512;DHT22;5304;48.604;2.096;2023-05-16T09:53:38;16.20;99.90
10512;DHT22;5304;48.604;2.096;2023-05-16T09:56:22;16.10;99.90
10512;DHT22;5304;48.604;2.096;2023-05-16T09:59:09;15.90;99.90
10512;DHT22;5304;48.604;2.096;2023-05-16T10:01:57;16.20;99.90
10512;DHT22;5304;48.604;2.096;2023-05-16T10:04:44;16.40;99.90
10512;DHT22;5304;48.604;2.096;2023-05-16T10:07:30;16.50;99.90
10512;DHT22;5304;48.604;2.096;2023-05-16T10:10:17;16.60;99.90
10512;DHT22;5304;48.604;2.096;2023-05-16T10:13:02;16.60;99.90
10512;DHT22;5304;48.604;2.096;2023-05-16T10:15:49;16.80;99.90
10512;DHT22;5304;48.604;2.096;2023-05-16T10:18:35;16.70;99.90
10512;DHT22;5304;48.604;2.096;2023-05-16T10:21:22;16.50;99.90
10512;DHT22;5304;48.604;2.096;2023-05-16T10:24:09;16.40;99.90
10512;DHT22;5304;48.604;2.096;2023-05-16T10:26:55;16.50;99.90
10512;DHT22;5304;48.604;2.096;2023-05-16T10:29:41;16.80;99.90
10512;DHT22;5304;48.604;2.096;2023-05-16T10:32:26;17.10;99.90
10512;DHT22;5304;48.604;2.096;2023-05-16T10:35:11;17.10;99.90
10512;DHT22;5304;48.604;2.096;2023-05-16T10:37:57;17.10;99.90
10512;DHT22;5304;48.604;2.096;2023-05-16T10:40:42;17.40;99.90
10512;DHT22;5304;48.604;2.096;2023-05-16T10:43:30;17.50;99.90
10512;DHT22;5304;48.604;2.096;2023-05-16T10:46:16;17.40;99.90
10512;DHT22;5304;48.604;2.096;2023-05-16T10:49:25;17.60;99.90
10512;DHT22;5304;48.604;2.096;2023-05-16T10:52:11;17.40;99.90
10512;DHT22;5304;48.604;2.096;2023-05-16T10:55:01;17.70;99.90
10512;DHT22;5304;48.604;2.096;2023-05-16T10:57:47;17.90;99.90
10512;DHT22;5304;48.604;2.096;2023-05-16T11:00:31;17.60;99.90
10512;DHT22;5304;48.604;2.096;2023-05-16T11:03:21;17.30;99.90
10512;DHT22;5304;48.604;2.096;2023-05-16T11:06:08;16.90;99.90
10512;DHT22;5304;48.604;2.096;2023-05-16T11:12:02;17.00;99.90
10512;DHT22;5304;48.604;2.096;2023-05-16T11:14:50;17.30;99.90
10512;DHT22;5304;48.604;2.096;2023-05-16T11:17:38;17.50;99.90
10512;DHT22;5304;48.604;2.096;2023-05-16T11:20:25;17.70;99.90
10512;DHT22;5304;48.604;2.096;2023-05-16T11:26:02;17.90;99.90
10512;DHT22;5304;48.604;2.096;2023-05-16T11:28:48;18.10;99.90
10512;DHT22;5304;48.604;2.096;2023-05-16T11:31:34;18.20;99.90
10512;DHT22;5304;48.604;2.096;2023-05-16T11:34:18;18.30;99.90
10512;DHT22;5304;48.604;2.096;2023-05-16T11:37:03;18.20;99.90
10512;DHT22;5304;48.604;2.096;2023-05-16T11:39:48;18.00;99.90
10512;DHT22;5304;48.604;2.096;2023-05-16T11:42:40;18.20;99.90
10512;DHT22;5304;48.604;2.096;2023-05-16T11:45:24;18.20;99.90
10512;DHT22;5304;48.604;2.096;2023-05-16T11:48:09;18.10;99.90
10512;DHT22;5304;48.604;2.096;2023-05-16T11:50:54;17.90;99.90
10512;DHT22;5304;48.604;2.096;2023-05-16T11:53:39;18.10;99.90
10512;DHT22;5304;48.604;2.096;2023-05-16T11:56:24;18.50;99.90
10512;DHT22;5304;48.604;2.096;2023-05-16T11:59:10;18.40;99.90
10512;DHT22;5304;48.604;2.096;2023-05-16T12:01:54;18.50;99.90
10512;DHT22;5304;48.604;2.096;2023-05-16T12:04:39;18.60;99.90
10512;DHT22;5304;48.604;2.096;2023-05-16T12:07:29;18.40;99.90
10512;DHT22;5304;48.604;2.096;2023-05-16T12:10:15;18.40;99.90
10512;DHT22;5304;48.604;2.096;2023-05-16T12:12:59;18.70;99.90
10512;DHT22;5304;48.604;2.096;2023-05-16T12:15:44;18.40;99.90
10512;DHT22;5304;48.604;2.096;2023-05-16T12:18:29;18.10;99.90
10512;DHT22;5304;48.604;2.096;2023-05-16T12:21:13;18.30;99.90
10512;DHT22;5304;48.604;2.096;2023-05-16T12:23:58;18.50;99.90
10512;DHT22;5304;48.604;2.096;2023-05-16T12:26:42;18.70;99.90
10512;DHT22;5304;48.604;2.096;2023-05-16T12:29:27;18.70;99.90
10512;DHT22;5304;48.604;2.096;2023-05-16T12:32:18;18.60;99.90
10512;DHT22;5304;48.604;2.096;2023-05-16T12:35:03;18.20;99.90
10512;DHT22;5304;48.604;2.096;2023-05-16T12:37:48;18.30;99.90
10512;DHT22;5304;48.604;2.096;2023-05-16T12:40:36;18.60;99.90
10512;DHT22;5304;48.604;2.096;2023-05-16T12:43:22;18.50;99.90
10512;DHT22;5304;48.604;2.096;2023-05-16T12:46:09;18.40;99.90
10512;DHT22;5304;48.604;2.096;2023-05-16T12:49:03;18.20;99.90
10512;DHT22;5304;48.604;2.096;2023-05-16T12:51:52;17.80;99.90
10512;DHT22;5304;48.604;2.096;2023-05-16T12:54:37;17.80;99.90
10512;DHT22;5304;48.604;2.096;2023-05-16T12:57:22;18.10;99.90
10512;DHT22;5304;48.604;2.096;2023-05-16T13:00:07;18.30;99.90
10512;DHT22;5304;48.604;2.096;2023-05-16T13:02:52;18.40;99.90
10512;DHT22;5304;48.604;2.096;2023-05-16T13:05:36;18.40;99.90
10512;DHT22;5304;48.604;2.096;2023-05-16T13:08:20;17.90;99.90
10512;DHT22;5304;48.604;2.096;2023-05-16T13:11:04;17.70;99.90
10512;DHT22;5304;48.604;2.096;2023-05-16T13:13:49;17.40;99.90
10512;DHT22;5304;48.604;2.096;2023-05-16T13:16:33;17.70;99.90
10512;DHT22;5304;48.604;2.096;2023-05-16T13:19:17;17.90;99.90
10512;DHT22;5304;48.604;2.096;2023-05-16T13:22:02;18.20;99.90
10512;DHT22;5304;48.604;2.096;2023-05-16T13:24:47;18.10;99.90
10512;DHT22;5304;48.604;2.096;2023-05-16T13:27:32;18.20;99.90
10512;DHT22;5304;48.604;2.096;2023-05-16T13:30:17;18.10;99.90
10512;DHT22;5304;48.604;2.096;2023-05-16T13:33:01;17.80;99.90
10512;DHT22;5304;48.604;2.096;2023-05-16T13:35:46;17.80;99.90
10512;DHT22;5304;48.604;2.096;2023-05-16T13:38:30;18.00;99.90
10512;DHT22;5304;48.604;2.096;2023-05-16T13:41:15;18.00;99.90
10512;DHT22;5304;48.604;2.096;2023-05-16T13:44:00;18.20;99.90
10512;DHT22;5304;48.604;2.096;2023-05-16T13:46:44;18.40;99.90
10512;DHT22;5304;48.604;2.096;2023-05-16T13:49:29;18.40;99.90
10512;DHT22;5304;48.604;2.096;2023-05-16T13:52:14;18.40;99.90
10512;DHT22;5304;48.604;2.096;2023-05-16T13:54:58;18.40;99.90
10512;DHT22;5304;48.604;2.096;2023-05-16T13:57:42;18.30;99.90
10512;DHT22;5304;48.604;2.096;2023-05-16T14:00:27;18.30;99.90
10512;DHT22;5304;48.604;2.096;2023-05-16T14:03:11;18.10;99.90
10512;DHT22;5304;48.604;2.096;2023-05-16T14:05:56;17.70;99.90
10512;DHT22;5304;48.604;2.096;2023-05-16T14:08:40;17.40;99.90
10512;DHT22;5304;48.604;2.096;2023-05-16T14:11:25;17.50;99.90
10512;DHT22;5304;48.604;2.096;2023-05-16T14:14:10;17.90;99.90
10512;DHT22;5304;48.604;2.096;2023-05-16T14:16:54;18.20;99.90
10512;DHT22;5304;48.604;2.096;2023-05-16T14:19:39;18.20;99.90
10512;DHT22;5304;48.604;2.096;2023-05-16T14:22:23;17.90;99.90
10512;DHT22;5304;48.604;2.096;2023-05-16T14:25:08;17.80;99.90
10512;DHT22;5304;48.604;2.096;2023-05-16T14:27:52;17.80;99.90
10512;DHT22;5304;48.604;2.096;2023-05-16T14:30:36;18.10;99.90
10512;DHT22;5304;48.604;2.096;2023-05-16T14:33:21;17.90;99.90
10512;DHT22;5304;48.604;2.096;2023-05-16T14:36:06;17.60;99.90
10512;DHT22;5304;48.604;2.096;2023-05-16T14:38:51;17.20;99.90
10512;DHT22;5304;48.604;2.096;2023-05-16T14:41:35;17.10;99.90
10512;DHT22;5304;48.604;2.096;2023-05-16T14:44:21;17.10;99.90
10512;DHT22;5304;48.604;2.096;2023-05-16T14:47:07;17.30;99.90
10512;DHT22;5304;48.604;2.096;2023-05-16T14:49:51;17.70;99.90
10512;DHT22;5304;48.604;2.096;2023-05-16T14:52:38;17.90;99.90
10512;DHT22;5304;48.604;2.096;2023-05-16T14:55:23;17.60;99.90
10512;DHT22;5304;48.604;2.096;2023-05-16T14:58:07;17.50;99.90
10512;DHT22;5304;48.604;2.096;2023-05-16T15:00:52;17.50;99.90
10512;DHT22;5304;48.604;2.096;2023-05-16T15:03:36;17.40;99.90
10512;DHT22;5304;48.604;2.096;2023-05-16T15:06:21;17.30;99.90
10512;DHT22;5304;48.604;2.096;2023-05-16T15:09:05;17.00;99.90
10512;DHT22;5304;48.604;2.096;2023-05-16T15:11:50;16.90;99.90
10512;DHT22;5304;48.604;2.096;2023-05-16T15:14:35;16.90;99.90
10512;DHT22;5304;48.604;2.096;2023-05-16T15:17:20;16.80;99.90
10512;DHT22;5304;48.604;2.096;2023-05-16T15:20:06;16.80;99.90
10512;DHT22;5304;48.604;2.096;2023-05-16T15:22:52;16.90;99.90
10512;DHT22;5304;48.604;2.096;2023-05-16T15:25:36;17.00;99.90
10512;DHT22;5304;48.604;2.096;2023-05-16T15:28:20;17.10;99.90
10512;DHT22;5304;48.604;2.096;2023-05-16T15:31:05;17.30;99.90
10512;DHT22;5304;48.604;2.096;2023-05-16T15:33:49;17.50;99.90
10512;DHT22;5304;48.604;2.096;2023-05-16T15:36:34;17.60;99.90
10512;DHT22;5304;48.604;2.096;2023-05-16T15:39:19;17.60;99.90
10512;DHT22;5304;48.604;2.096;2023-05-16T15:42:03;17.70;99.90
10512;DHT22;5304;48.604;2.096;2023-05-16T15:44:49;17.50;99.90
10512;DHT22;5304;48.604;2.096;2023-05-16T15:47:33;17.30;99.90
10512;DHT22;5304;48.604;2.096;2023-05-16T15:50:18;17.10;99.90
10512;DHT22;5304;48.604;2.096;2023-05-16T15:53:02;17.10;99.90
10512;DHT22;5304;48.604;2.096;2023-05-16T15:55:47;17.00;99.90
10512;DHT22;5304;48.604;2.096;2023-05-16T15:58:32;17.00;99.90
10512;DHT22;5304;48.604;2.096;2023-05-16T16:01:18;17.10;99.90
10512;DHT22;5304;48.604;2.096;2023-05-16T16:04:02;17.10;99.90
10512;DHT22;5304;48.604;2.096;2023-05-16T16:06:47;17.00;99.90
10512;DHT22;5304;48.604;2.096;2023-05-16T16:09:31;16.70;99.90
10512;DHT22;5304;48.604;2.096;2023-05-16T16:12:16;16.50;99.90
10512;DHT22;5304;48.604;2.096;2023-05-16T16:15:00;16.30;99.90
10512;DHT22;5304;48.604;2.096;2023-05-16T16:17:45;16.40;99.90
10512;DHT22;5304;48.604;2.096;2023-05-16T16:20:30;16.60;99.90
10512;DHT22;5304;48.604;2.096;2023-05-16T16:23:14;16.60;99.90
10512;DHT22;5304;48.604;2.096;2023-05-16T16:25:58;16.60;99.90
10512;DHT22;5304;48.604;2.096;2023-05-16T16:28:44;16.50;99.90
10512;DHT22;5304;48.604;2.096;2023-05-16T16:31:28;16.50;99.90
10512;DHT22;5304;48.604;2.096;2023-05-16T16:34:12;16.50;99.90
10512;DHT22;5304;48.604;2.096;2023-05-16T16:36:56;16.40;99.90
10512;DHT22;5304;48.604;2.096;2023-05-16T16:39:41;16.30;99.90
10512;DHT22;5304;48.604;2.096;2023-05-16T16:42:26;16.10;99.90
10512;DHT22;5304;48.604;2.096;2023-05-16T16:45:10;16.10;99.90
10512;DHT22;5304;48.604;2.096;2023-05-16T16:47:55;16.30;99.90
10512;DHT22;5304;48.604;2.096;2023-05-16T16:50:40;16.30;99.90
10512;DHT22;5304;48.604;2.096;2023-05-16T16:53:25;16.30;99.90
10512;DHT22;5304;48.604;2.096;2023-05-16T16:56:09;16.30;99.90
10512;DHT22;5304;48.604;2.096;2023-05-16T16:58:54;16.30;99.90
10512;DHT22;5304;48.604;2.096;2023-05-16T17:01:39;16.30;99.90
10512;DHT22;5304;48.604;2.096;2023-05-16T17:04:24;16.20;99.90
10512;DHT22;5304;48.604;2.096;2023-05-16T17:07:08;16.10;99.90
10512;DHT22;5304;48.604;2.096;2023-05-16T17:09:53;16.10;99.90
10512;DHT22;5304;48.604;2.096;2023-05-16T17:12:39;16.00;99.90
10512;DHT22;5304;48.604;2.096;2023-05-16T17:15:29;16.10;99.90
10512;DHT22;5304;48.604;2.096;2023-05-16T17:18:14;16.00;99.90
10512;DHT22;5304;48.604;2.096;2023-05-16T17:20:58;16.00;99.90
10512;DHT22;5304;48.604;2.096;2023-05-16T17:23:42;16.00;99.90
10512;DHT22;5304;48.604;2.096;2023-05-16T17:26:27;15.80;99.90
10512;DHT22;5304;48.604;2.096;2023-05-16T17:29:12;15.60;99.90
10512;DHT22;5304;48.604;2.096;2023-05-16T17:31:57;15.60;99.90
10512;DHT22;5304;48.604;2.096;2023-05-16T17:34:41;15.60;99.90
10512;DHT22;5304;48.604;2.096;2023-05-16T17:37:25;15.50;99.90
10512;DHT22;5304;48.604;2.096;2023-05-16T17:40:10;15.50;99.90
10512;DHT22;5304;48.604;2.096;2023-05-16T17:42:59;15.40;99.90
10512;DHT22;5304;48.604;2.096;2023-05-16T17:45:44;15.30;99.90
10512;DHT22;5304;48.604;2.096;2023-05-16T17:48:28;15.30;99.90
10512;DHT22;5304;48.604;2.096;2023-05-16T17:51:13;15.20;99.90
10512;DHT22;5304;48.604;2.096;2023-05-16T17:53:57;15.20;99.90
10512;DHT22;5304;48.604;2.096;2023-05-16T17:56:43;15.30;99.90
10512;DHT22;5304;48.604;2.096;2023-05-16T17:59:27;15.30;99.90
10512;DHT22;5304;48.604;2.096;2023-05-16T18:02:12;15.30;99.90
10512;DHT22;5304;48.604;2.096;2023-05-16T18:04:59;15.30;99.90